METAR Data
IDs: Format: Raw Decoded Include TAF

Data at: 0356 UTC 06 Dec 2019

KBEH 060353Z AUTO 20007KT 10SM CLR 07/00 A2993 RMK AO2 SLP140 T00670000
KBEH 060253Z AUTO 19007KT 10SM OVC110 07/00 A2995 RMK AO2 SLP146 T00670000 56009
KBEH 060153Z AUTO 20007KT 10SM OVC080 06/M01 A2996 RMK AO2 SLP149 T00611006
KBEH 060053Z AUTO 18006KT 10SM OVC100 06/M02 A2997 RMK AO2 SLP154 T00561017
KBEH 052353Z AUTO 16005KT 10SM OVC100 05/M02 A2998 RMK AO2 SLP157 T00501022 10072 20044 50002
KBEH 052253Z AUTO 15003KT 10SM OVC110 05/M03 A2999 RMK AO2 SLP160 T00501028
KBEH 052153Z AUTO VRB05KT 10SM BKN110 06/M03 A2999 RMK AO2 SLP160 T00611028
KBEH 052053Z AUTO 20007KT 10SM CLR 07/M04 A2997 RMK AO2 SLP154 T00671039 56022
KBEH 051953Z AUTO 17006KT 10SM CLR 07/M03 A2998 RMK AO2 SLP157 T00671033
KBEH 051853Z AUTO 23010KT 10SM CLR 07/M03 A3000 RMK AO2 SLP163 T00721028
KBEH 051753Z AUTO 25008KT 10SM OVC100 06/M02 A3004 RMK AO2 SLP176 T00561017 10056 20017 58002
KBEH 051653Z AUTO 26007KT 10SM SCT110 06/M02 A3005 RMK AO2 SLP181 T00561022
KBEH 051553Z AUTO 29006KT 10SM CLR 05/M02 A3006 RMK AO2 SLP185 T00501017
KBEH 051453Z AUTO 28006KT 10SM CLR 04/M02 A3005 RMK AO2 SLP179 T00441017 53013
KBEH 051353Z AUTO 31004KT 10SM SCT021 03/M02 A3002 RMK AO2 SLP172 T00281017
KBEH 051351Z AUTO 30004KT 10SM SCT021 03/M02 A3002 RMK AO2
KBEH 051336Z AUTO 29004KT 10SM BKN022 03/M02 A3003 RMK AO2 T00281017
KBEH 051253Z AUTO 30004KT 10SM FEW026 02/M03 A3001 RMK AO2 SLP168 T00171028
KBEH 051153Z AUTO 30006KT 10SM FEW025 02/M03 A2999 RMK AO2 SLP162 T00221028 10039 20017 53023
KBEH 051053Z AUTO 30006KT 10SM FEW027 02/M03 A2996 RMK AO2 SLP151 T00221033
KBEH 050953Z AUTO 31005KT 10SM CLR 03/M04 A2993 RMK AO2 SLP141 T00281039
KBEH 050853Z AUTO 31006KT 10SM FEW033 03/M04 A2992 RMK AO2 SLP138 T00281039 51012
KBEH 050753Z AUTO 31007G16KT 10SM FEW036 03/M04 A2991 RMK AO2 SLP134 T00281039
KBEH 050653Z AUTO 31012G20KT 10SM SCT043 03/M03 A2991 RMK AO2 SLP132 T00331033
KBEH 050553Z AUTO 30011G20KT 10SM OVC046 04/M04 A2989 RMK AO2 SLP126 T00391044 10039 20033 51017
KBEH 050453Z AUTO 31011G18KT 290V360 10SM OVC043 04/M04 A2988 RMK AO2 SLP122 T00391044 400440028
KBEH 050353Z AUTO 33011G20KT 10SM OVC047 04/M06 A2986 RMK AO2 PK WND 35026/0313 SLP116 T00391056
KBEH 050253Z AUTO 32012G22KT 280V360 10SM OVC039 03/M04 A2984 RMK AO2 PK WND 31026/0209 SLP108 T00331044 51023
KBEH 050153Z AUTO 32011G25KT 10SM FEW036 OVC046 03/M04 A2982 RMK AO2 SLP103 T00331044
KBEH 050053Z AUTO 10SM SCT030 OVC039 03/M03 A2980 RMK AO2 SLP094 T00331033
KBEH 042353Z AUTO 32008G23KT 10SM SCT027 BKN034 OVC047 03/M03 A2977 RMK AO2 SLP084 T00331028 10033 20028 51026
KBEH 042253Z AUTO 33010G20KT 10SM FEW028 SCT034 OVC044 03/M03 A2975 RMK AO2 SLP077 T00331028
KBEH 042153Z AUTO 32010G18KT 10SM FEW025 BKN033 OVC043 03/M02 A2972 RMK AO2 SLP068 T00331022
KBEH 042053Z AUTO 32010G19KT 10SM FEW028 BKN036 OVC045 03/M03 A2969 RMK AO2 SLP058 T00331028 53016
KBEH 041953Z AUTO 31015G27KT 10SM FEW025 OVC035 03/M03 A2966 RMK AO2 PK WND 31027/1952 SLP050 T00331028
KBEH 041950Z AUTO 31014G23KT 10SM SCT025 OVC033 03/M03 A2966 RMK AO2
KBEH 041927Z AUTO 30011G22KT 10SM BKN026 OVC034 03/M02 A2965 RMK AO2 T00331022
KBEH 041910Z AUTO 31012G22KT 10SM FEW028 OVC034 03/M03 A2965 RMK AO2 T00331028
KBEH 041853Z AUTO 31013G24KT 10SM BKN025 OVC032 03/M03 A2964 RMK AO2 SLP041 T00331028
KBEH 041753Z AUTO 31014G24KT 10SM BKN021 OVC027 03/M03 A2964 RMK AO2 PK WND 31026/1710 SLP041 T00281028 10033 20028 51009
KBEH 041653Z AUTO 31013G26KT 10SM OVC023 03/M02 A2964 RMK AO2 PK WND 31027/1639 SLP040 T00281022